Time;durP1;ratioP1;P1;durP2;ratioP2;P2;SDS_P1;SDS_P2;PMS_P1;PMS_P2;Temp;Humidity;BMP_temperature;BMP_pressure;BME280_temperature;BME280_humidity;BME280_pressure;Samples;Min_cycle;Max_cycle;Signal;HPM_P1;HPM_P2
2022/12/22 03:27:38;;;;;;;16.73;11.70;;;10.10;90.90;;;;;;9182063;19;20026;-62
2022/12/22 03:30:42;;;;;;;22.08;13.00;;;10.10;90.90;;;;;;9182077;19;20035;-66
2022/12/22 03:33:48;;;;;;;17.88;12.27;;;10.10;91.00;;;;;;9182391;19;20493;-62
2022/12/22 03:36:52;;;;;;;16.52;12.07;;;10.10;91.00;;;;;;9182506;19;20010;-62
2022/12/22 03:39:56;;;;;;;19.15;13.13;;;10.10;91.00;;;;;;9182460;19;20021;-61
2022/12/22 03:49:37;;;;;;;29.00;13.93;;;10.10;91.00;;;;;;9181756;19;20010;-62
2022/12/22 03:52:41;;;;;;;19.20;13.35;;;10.10;91.00;;;;;;9181883;19;20018;-63
2022/12/22 03:55:45;;;;;;;22.80;13.82;;;10.10;91.00;;;;;;9181356;19;20344;-64
2022/12/22 03:58:48;;;;;;;22.23;13.57;;;10.10;91.00;;;;;;9181446;19;20021;-62
2022/12/22 04:01:54;;;;;;;22.73;13.52;;;10.10;91.00;;;;;;9174239;19;20313;-62
2022/12/22 04:05:00;;;;;;;20.98;13.43;;;10.10;91.00;;;;;;9180119;19;20761;-63
2022/12/22 04:08:05;;;;;;;29.33;13.98;;;10.10;91.00;;;;;;9180459;19;20456;-61
2022/12/22 04:14:27;;;;;;;20.77;13.68;;;10.10;91.10;;;;;;9178987;19;20041;-61
2022/12/22 04:17:37;;;;;;;23.73;14.75;;;10.10;91.00;;;;;;9180391;19;20090;-64
2022/12/22 04:20:42;;;;;;;21.90;14.18;;;10.10;91.00;;;;;;9178697;19;20018;-62
2022/12/22 04:23:50;;;;;;;20.30;13.02;;;10.10;91.10;;;;;;9178912;19;20044;-64
2022/12/22 04:26:53;;;;;;;24.38;14.25;;;10.20;91.10;;;;;;9180845;19;20018;-61
2022/12/22 04:29:57;;;;;;;;;;;10.10;91.10;;;;;;9181234;19;20006;-62
2022/12/22 04:33:01;;;;;;;24.90;14.07;;;10.20;91.10;;;;;;9179690;19;20340;-62
2022/12/22 04:36:08;;;;;;;21.67;13.57;;;10.20;91.00;;;;;;9177756;19;20052;-62
2022/12/22 04:39:11;;;;;;;22.42;14.95;;;10.20;91.00;;;;;;9180357;19;20382;-64
2022/12/22 04:42:15;;;;;;;23.95;14.88;;;10.20;91.00;;;;;;9177945;19;20007;-61
2022/12/22 04:45:19;;;;;;;;;;;10.20;91.00;;;;;;9180822;19;20018;-61
2022/12/22 04:48:24;;;;;;;22.38;13.73;;;10.20;91.00;;;;;;9180018;19;19923;-61
2022/12/22 04:51:29;;;;;;;22.20;14.18;;;10.30;91.00;;;;;;9178718;19;20475;-65
2022/12/22 04:54:33;;;;;;;24.27;13.73;;;10.20;91.00;;;;;;9179404;19;20491;-63
2022/12/22 04:57:37;;;;;;;22.65;13.88;;;10.20;91.00;;;;;;9177977;19;20022;-63
2022/12/22 05:00:44;;;;;;;24.38;14.70;;;10.20;91.00;;;;;;9175007;19;20022;-63
2022/12/22 05:03:48;;;;;;;20.20;13.05;;;10.20;91.00;;;;;;9177515;19;20014;-63
2022/12/22 05:06:54;;;;;;;21.85;14.02;;;10.20;91.00;;;;;;9179227;19;20478;-63
2022/12/22 05:09:58;;;;;;;20.98;13.32;;;10.20;91.00;;;;;;9178917;19;20085;-63
2022/12/22 05:13:01;;;;;;;23.52;13.00;;;10.20;91.00;;;;;;9179078;19;20929;-64
2022/12/22 05:16:08;;;;;;;24.48;14.85;;;10.20;91.00;;;;;;9178788;19;20019;-62
2022/12/22 05:19:12;;;;;;;22.95;13.68;;;10.20;91.10;;;;;;9179218;19;20025;-61
2022/12/22 05:22:17;;;;;;;22.48;13.10;;;10.30;91.00;;;;;;9176386;19;20015;-61
2022/12/22 05:25:22;;;;;;;25.17;14.70;;;10.20;91.00;;;;;;9177866;19;20014;-64
2022/12/22 05:28:26;;;;;;;22.48;14.00;;;10.20;91.00;;;;;;9177219;19;20018;-61
2022/12/22 05:31:29;;;;;;;;;;;10.30;91.00;;;;;;9180050;19;20077;-62
2022/12/22 05:34:33;;;;;;;29.73;14.70;;;10.30;91.00;;;;;;9178667;19;19915;-63
2022/12/22 05:37:39;;;;;;;29.45;15.45;;;10.30;91.00;;;;;;9176571;19;20045;-61
2022/12/22 05:40:43;;;;;;;24.83;14.85;;;10.30;91.00;;;;;;9177903;19;20486;-63
2022/12/22 05:43:47;;;;;;;28.15;15.90;;;10.30;91.00;;;;;;9177575;19;20651;-62
2022/12/22 05:46:51;;;;;;;28.30;16.05;;;10.30;91.00;;;;;;9178267;19;20440;-62
2022/12/22 05:49:55;;;;;;;28.63;15.60;;;10.30;91.00;;;;;;9178248;19;20021;-64
2022/12/22 05:53:01;;;;;;;25.88;15.73;;;10.30;91.00;;;;;;9177433;19;20616;-64
2022/12/22 05:56:05;;;;;;;29.13;15.65;;;10.30;91.00;;;;;;9177321;19;20734;-62
2022/12/22 05:59:09;;;;;;;26.13;16.33;;;10.30;91.00;;;;;;9176363;19;20298;-63
2022/12/22 06:02:12;;;;;;;25.67;15.02;;;10.30;91.00;;;;;;9169670;19;20019;-62
2022/12/22 06:05:16;;;;;;;26.70;16.30;;;10.30;91.00;;;;;;9176962;19;20355;-62
2022/12/22 06:08:22;;;;;;;25.65;15.48;;;10.30;91.00;;;;;;9176981;19;20018;-62
2022/12/22 06:11:26;;;;;;;27.10;14.10;;;10.30;91.00;;;;;;9176523;19;20031;-62
2022/12/22 06:14:30;;;;;;;25.17;16.17;;;10.30;91.00;;;;;;9174375;19;20123;-64
2022/12/22 06:17:34;;;;;;;27.95;16.50;;;10.30;91.00;;;;;;9176958;19;20444;-61
2022/12/22 06:20:47;;;;;;;29.00;16.75;;;10.30;91.00;;;;;;9176367;19;20014;-61
2022/12/22 06:23:54;;;;;;;26.73;16.60;;;10.30;91.00;;;;;;9175949;19;20055;-62
2022/12/22 06:26:57;;;;;;;24.92;15.60;;;10.30;91.00;;;;;;9176182;19;20015;-63
2022/12/22 06:30:01;;;;;;;;;;;10.30;91.00;;;;;;9175378;19;20115;-60
2022/12/22 06:33:05;;;;;;;23.05;15.00;;;10.30;91.30;;;;;;9176435;19;19915;-63
2022/12/22 06:36:09;;;;;;;29.55;15.68;;;10.30;91.00;;;;;;9174104;19;20341;-63
2022/12/22 06:39:16;;;;;;;26.73;15.82;;;10.30;91.00;;;;;;9175853;19;20018;-64
2022/12/22 06:45:37;;;;;;;25.88;16.17;;;10.30;91.00;;;;;;9176179;19;20011;-62
2022/12/22 06:48:41;;;;;;;26.00;15.90;;;10.20;91.00;;;;;;9175362;19;20010;-63
2022/12/22 06:51:45;;;;;;;25.77;15.85;;;10.30;91.10;;;;;;9171535;19;20030;-63
2022/12/22 06:54:51;;;;;;;26.05;15.43;;;10.20;91.00;;;;;;9174340;19;20694;-62
2022/12/22 06:57:55;;;;;;;28.58;16.77;;;10.30;91.10;;;;;;9177621;19;20337;-63
2022/12/22 07:00:58;;;;;;;34.42;17.10;;;10.20;91.00;;;;;;9176326;19;20018;-65
2022/12/22 07:04:02;;;;;;;24.17;15.02;;;10.30;91.30;;;;;;9179303;19;20483;-64
2022/12/22 07:07:06;;;;;;;;;;;10.30;91.10;;;;;;9181890;19;20017;-64
2022/12/22 07:10:12;;;;;;;23.90;13.57;;;10.30;91.10;;;;;;9182550;19;19918;-63
2022/12/22 07:13:22;;;;;;;23.85;13.75;;;10.20;91.00;;;;;;9181854;19;20097;-63
2022/12/22 07:16:26;;;;;;;24.73;14.65;;;10.20;91.30;;;;;;9180741;19;20006;-65
2022/12/22 07:19:30;;;;;;;25.27;15.43;;;10.20;91.10;;;;;;9165367;19;20407;-63
2022/12/22 07:22:34;;;;;;;26.15;14.57;;;10.20;91.10;;;;;;9168836;19;20011;-68
2022/12/22 07:25:40;;;;;;;23.98;13.60;;;10.20;91.10;;;;;;9172457;19;20109;-64
2022/12/22 07:28:44;;;;;;;21.95;13.57;;;10.20;91.10;;;;;;9169042;19;20018;-61
2022/12/22 07:31:47;;;;;;;23.35;14.10;;;10.20;91.10;;;;;;9173823;19;20479;-64
2022/12/22 07:34:51;;;;;;;25.10;13.77;;;10.30;91.10;;;;;;9168147;19;20495;-64
2022/12/22 07:37:55;;;;;;;20.52;12.82;;;10.30;91.10;;;;;;9170678;19;20430;-62
2022/12/22 07:41:01;;;;;;;21.52;13.43;;;10.30;91.10;;;;;;9180210;19;20284;-62
2022/12/22 07:44:09;;;;;;;22.65;13.90;;;10.20;91.10;;;;;;9179932;19;20006;-62
2022/12/22 07:47:12;;;;;;;;;;;10.30;91.10;;;;;;9176878;19;20014;-62
2022/12/22 07:50:26;;;;;;;25.40;14.52;;;10.20;91.10;;;;;;9176227;19;19932;-61
2022/12/22 07:53:30;;;;;;;26.42;14.10;;;10.20;91.00;;;;;;9174702;19;20094;-62
2022/12/22 07:56:36;;;;;;;25.50;14.82;;;10.20;91.10;;;;;;9174989;19;20011;-62
2022/12/22 07:59:40;;;;;;;26.67;14.00;;;10.30;91.10;;;;;;9148051;19;20030;-62
2022/12/22 08:02:44;;;;;;;30.23;17.35;;;10.30;91.10;;;;;;9151268;19;20792;-65
2022/12/22 08:05:48;;;;;;;29.08;15.57;;;10.20;91.10;;;;;;9172688;19;20380;-63
2022/12/22 08:08:52;;;;;;;26.15;14.63;;;10.20;91.10;;;;;;9122690;19;20052;-63
2022/12/22 08:11:58;;;;;;;26.00;15.20;;;10.30;91.20;;;;;;9178377;19;20482;-67
2022/12/22 08:15:02;;;;;;;28.45;15.27;;;10.20;91.10;;;;;;9172871;19;20014;-63
2022/12/22 08:18:06;;;;;;;;;;;10.20;91.10;;;;;;9174916;19;20043;-62
2022/12/22 08:21:10;;;;;;;21.75;13.68;;;10.20;91.20;;;;;;9141544;19;20378;-66
2022/12/22 08:24:14;;;;;;;25.50;14.30;;;10.20;91.10;;;;;;9179459;19;20503;-65
2022/12/22 08:27:24;;;;;;;24.40;13.25;;;10.20;91.10;;;;;;9173336;19;20030;-65
2022/12/22 08:30:29;;;;;;;36.13;17.67;;;10.20;91.10;;;;;;9115562;19;20101;-64
2022/12/22 08:33:33;;;;;;;33.17;17.25;;;10.20;91.20;;;;;;9164403;19;20025;-64
2022/12/22 08:36:40;;;;;;;30.88;17.10;;;10.20;91.20;;;;;;9175363;19;20025;-64
2022/12/22 08:39:47;;;;;;;35.30;16.70;;;10.20;91.20;;;;;;9158741;19;20010;-69
2022/12/22 08:42:57;;;;;;;31.13;16.58;;;10.20;91.20;;;;;;9126398;19;20007;-64
2022/12/22 08:46:01;;;;;;;35.35;17.90;;;10.10;91.20;;;;;;9160649;19;20380;-68
2022/12/22 08:49:05;;;;;;;35.45;17.75;;;10.10;91.20;;;;;;9171112;19;20018;-66
2022/12/22 08:52:09;;;;;;;34.63;16.73;;;10.10;91.20;;;;;;9172998;19;20018;-64
2022/12/22 08:55:21;;;;;;;45.28;18.02;;;10.20;91.20;;;;;;9169346;19;20018;-64
2022/12/22 08:58:27;;;;;;;37.55;18.15;;;10.20;91.20;;;;;;9171658;19;20514;-65
2022/12/22 09:01:30;;;;;;;34.53;16.73;;;10.10;91.20;;;;;;9166885;19;20022;-65
2022/12/22 09:04:35;;;;;;;;;;;10.10;91.20;;;;;;9176207;19;20015;-65
2022/12/22 09:07:39;;;;;;;35.42;17.60;;;10.20;91.20;;;;;;9173306;19;21626;-66
2022/12/22 09:10:44;;;;;;;52.08;20.75;;;10.10;91.10;;;;;;9170199;19;20030;-65
2022/12/22 09:13:51;;;;;;;47.05;20.02;;;10.10;91.20;;;;;;9173308;19;20015;-68
2022/12/22 09:16:55;;;;;;;49.03;21.40;;;10.10;91.20;;;;;;9174776;19;20021;-64
2022/12/22 09:19:59;;;;;;;51.70;20.13;;;10.10;91.20;;;;;;9175857;19;20368;-66
2022/12/22 09:23:03;;;;;;;49.78;20.65;;;10.10;91.20;;;;;;9170478;19;20345;-67
2022/12/22 09:26:09;;;;;;;49.70;20.35;;;10.10;91.20;;;;;;9171434;19;20483;-64
2022/12/22 09:29:15;;;;;;;49.95;22.52;;;10.10;91.20;;;;;;9174812;19;20027;-64
2022/12/22 09:32:19;;;;;;;55.20;22.55;;;10.10;91.20;;;;;;9168704;19;20042;-63
2022/12/22 09:35:23;;;;;;;51.72;21.55;;;10.10;91.20;;;;;;9175617;19;20039;-65
2022/12/22 09:38:27;;;;;;;48.58;19.60;;;10.10;91.20;;;;;;9174798;19;20018;-62
2022/12/22 09:41:33;;;;;;;45.88;19.65;;;10.10;91.20;;;;;;9175647;19;20018;-65
2022/12/22 09:44:43;;;;;;;48.33;19.75;;;10.10;91.20;;;;;;9171002;19;20038;-63
2022/12/22 09:47:52;;;;;;;48.90;19.80;;;10.10;91.20;;;;;;9168953;19;20015;-64
2022/12/22 09:50:58;;;;;;;54.85;21.02;;;10.10;91.20;;;;;;9170069;19;20041;-64
2022/12/22 09:54:02;;;;;;;50.13;19.70;;;10.20;91.20;;;;;;9169232;19;20026;-64
2022/12/22 09:57:12;;;;;;;51.95;18.77;;;10.10;91.20;;;;;;9172371;19;20018;-64
2022/12/22 10:00:21;;;;;;;52.58;20.05;;;10.10;91.20;;;;;;9168961;19;20010;-66
2022/12/22 10:03:34;;;;;;;50.28;19.30;;;10.10;91.20;;;;;;9167411;19;20488;-62
2022/12/22 10:06:47;;;;;;;45.03;17.35;;;10.10;91.20;;;;;;9172946;19;20392;-63
2022/12/22 10:09:51;;;;;;;47.53;18.52;;;10.10;91.20;;;;;;9170255;19;20015;-63
2022/12/22 10:12:57;;;;;;;48.58;20.65;;;10.10;91.20;;;;;;9169445;19;20014;-61
2022/12/22 10:16:03;;;;;;;46.97;17.40;;;10.10;91.20;;;;;;9168498;19;20475;-64
2022/12/22 10:19:10;;;;;;;48.85;16.90;;;10.10;91.10;;;;;;9169454;19;20078;-64
2022/12/22 10:22:28;;;;;;;45.03;17.77;;;10.10;91.10;;;;;;9171919;19;20019;-64
2022/12/22 10:25:35;;;;;;;44.58;16.83;;;10.10;91.10;;;;;;9169134;19;20042;-67
2022/12/22 10:29:02;;;;;;;49.35;18.00;;;10.10;91.10;;;;;;9173871;19;20038;-65
2022/12/22 10:32:15;;;;;;;54.33;15.52;;;10.10;91.10;;;;;;9171709;19;20368;-63
2022/12/22 10:35:19;;;;;;;43.47;17.35;;;10.10;91.10;;;;;;9178721;19;20022;-62
2022/12/22 10:38:25;;;;;;;;;;;10.10;91.10;;;;;;9177047;19;20019;-61
2022/12/22 10:41:31;;;;;;;37.72;14.02;;;10.10;91.10;;;;;;9179276;19;19930;-65
2022/12/22 10:44:38;;;;;;;30.13;13.65;;;10.10;91.10;;;;;;9181145;19;20449;-64
2022/12/22 10:47:48;;;;;;;36.60;13.98;;;10.00;91.10;;;;;;9175880;19;20586;-64
2022/12/22 10:50:53;;;;;;;29.13;14.05;;;10.10;91.10;;;;;;9179428;19;20051;-66
2022/12/22 10:53:57;;;;;;;31.27;13.80;;;10.10;91.10;;;;;;9182886;19;20018;-62
2022/12/22 10:57:07;;;;;;;32.00;13.02;;;10.10;91.10;;;;;;9175152;19;20474;-64
2022/12/22 11:00:24;;;;;;;33.13;12.52;;;10.10;91.10;;;;;;9180308;19;20026;-63
2022/12/22 11:03:33;;;;;;;31.67;14.10;;;10.10;91.10;;;;;;9176661;19;20010;-67
2022/12/22 11:06:44;;;;;;;27.33;12.40;;;10.00;91.00;;;;;;9177546;19;20025;-65
2022/12/22 11:09:48;;;;;;;35.53;13.23;;;10.10;91.10;;;;;;9175916;19;20014;-65
2022/12/22 11:13:19;;;;;;;37.95;13.70;;;10.10;91.10;;;;;;9177441;19;20035;-64
2022/12/22 11:16:29;;;;;;;30.42;13.68;;;10.10;91.00;;;;;;9175919;19;20018;-68
2022/12/22 11:19:58;;;;;;;34.28;14.38;;;10.00;91.00;;;;;;9179467;19;20374;-65
2022/12/22 11:23:05;;;;;;;32.70;13.13;;;10.10;91.00;;;;;;9178703;19;20368;-64
2022/12/22 11:26:16;;;;;;;25.77;10.77;;;10.10;91.00;;;;;;9178373;19;20022;-65
2022/12/22 11:29:36;;;;;;;31.67;10.90;;;10.10;91.00;;;;;;9178856;19;20018;-70
2022/12/22 11:33:07;;;;;;;21.52;10.07;;;10.00;90.90;;;;;;9174195;19;20022;-65
2022/12/22 11:36:19;;;;;;;24.75;10.27;;;10.00;90.90;;;;;;9175039;19;20023;-65
2022/12/22 11:39:34;;;;;;;30.85;11.70;;;10.00;90.90;;;;;;9175769;19;20051;-65
2022/12/22 11:42:53;;;;;;;28.80;11.93;;;10.00;90.90;;;;;;9173908;19;20022;-65
2022/12/22 11:46:17;;;;;;;28.20;10.13;;;10.00;90.90;;;;;;9171801;19;20029;-66
2022/12/22 11:49:47;;;;;;;29.98;10.15;;;10.00;90.90;;;;;;9173436;19;20030;-66
2022/12/22 11:53:07;;;;;;;26.65;10.10;;;10.00;90.90;;;;;;9172718;19;20018;-64
2022/12/22 11:56:23;;;;;;;26.38;9.88;;;10.00;90.90;;;;;;9173005;19;20015;-62
2022/12/22 11:59:39;;;;;;;29.73;10.75;;;10.00;90.90;;;;;;9176170;19;20093;-65
2022/12/22 12:03:18;;;;;;;30.55;10.48;;;9.90;90.80;;;;;;9169574;19;20678;-64
2022/12/22 12:06:40;;;;;;;20.77;9.85;;;10.00;90.80;;;;;;9177923;19;20477;-68
2022/12/22 12:09:54;;;;;;;27.27;11.05;;;9.90;90.80;;;;;;9179604;19;20113;-64
2022/12/22 12:13:05;;;;;;;27.92;11.07;;;9.90;90.80;;;;;;9179196;19;20018;-65
2022/12/22 12:16:19;;;;;;;28.75;10.23;;;9.90;90.80;;;;;;9181002;19;20050;-66
2022/12/22 12:19:48;;;;;;;24.80;9.37;;;9.90;91.00;;;;;;9176340;19;20022;-64
2022/12/22 12:23:06;;;;;;;19.75;8.15;;;9.90;90.70;;;;;;9168165;19;20516;-66
2022/12/22 12:26:17;;;;;;;23.50;8.77;;;10.00;90.70;;;;;;9175630;19;20010;-65
2022/12/22 12:29:25;;;;;;;23.98;8.77;;;10.00;90.70;;;;;;9175908;19;20022;-65
2022/12/22 12:32:32;;;;;;;22.30;9.05;;;9.90;90.70;;;;;;9180441;19;20014;-65
2022/12/22 12:35:47;;;;;;;23.35;8.70;;;9.90;90.60;;;;;;9180309;19;20358;-63
2022/12/22 12:39:00;;;;;;;21.02;7.55;;;10.00;90.60;;;;;;9180734;19;20021;-63
2022/12/22 12:42:26;;;;;;;18.23;7.05;;;9.90;90.50;;;;;;9172152;19;20010;-65
2022/12/22 12:45:34;;;;;;;19.20;7.47;;;9.90;90.50;;;;;;9163888;19;20343;-66
2022/12/22 12:48:42;;;;;;;22.00;8.05;;;9.90;90.50;;;;;;9165252;19;20019;-62
2022/12/22 12:51:50;;;;;;;19.35;6.85;;;9.90;90.40;;;;;;9171065;19;20102;-66
2022/12/22 12:55:24;;;;;;;21.20;8.40;;;9.90;90.40;;;;;;9164322;19;20106;-65
2022/12/22 12:58:53;;;;;;;23.88;8.07;;;9.90;90.60;;;;;;9167272;19;20044;-65
2022/12/22 13:02:00;;;;;;;24.65;7.68;;;9.90;90.40;;;;;;9164173;19;20015;-65
2022/12/22 13:05:29;;;;;;;20.65;8.02;;;9.90;90.40;;;;;;9165689;19;20018;-65
2022/12/22 13:08:33;;;;;;;22.92;7.22;;;9.90;90.40;;;;;;9166951;19;20025;-65
2022/12/22 13:11:38;;;;;;;26.17;8.52;;;9.90;90.30;;;;;;9165601;19;20019;-64
2022/12/22 13:15:04;;;;;;;12.65;5.75;;;9.90;90.30;;;;;;9168113;19;20015;-67
2022/12/22 13:18:43;;;;;;;14.20;5.32;;;9.90;90.30;;;;;;9171840;19;20037;-64
2022/12/22 13:21:56;;;;;;;16.70;5.32;;;9.90;90.20;;;;;;9169795;19;20019;-65
2022/12/22 13:25:02;;;;;;;12.07;5.13;;;9.90;90.30;;;;;;9168981;19;20082;-64
2022/12/22 13:28:07;;;;;;;19.60;5.82;;;9.90;90.30;;;;;;9170576;19;20022;-63
2022/12/22 13:31:20;;;;;;;17.40;5.72;;;9.90;90.20;;;;;;9170112;19;20475;-63
2022/12/22 13:34:37;;;;;;;15.52;5.13;;;9.90;90.20;;;;;;9168442;19;20018;-65
2022/12/22 13:38:01;;;;;;;17.77;4.80;;;9.90;90.20;;;;;;9164836;19;20019;-63
2022/12/22 13:41:14;;;;;;;15.48;5.05;;;9.90;90.20;;;;;;9169531;19;20019;-65
2022/12/22 13:44:26;;;;;;;18.55;4.53;;;9.90;90.10;;;;;;9162428;19;20097;-66
2022/12/22 13:47:33;;;;;;;11.63;4.60;;;9.90;90.10;;;;;;9165437;19;20017;-64
2022/12/22 13:50:42;;;;;;;11.93;4.75;;;9.90;90.10;;;;;;9165324;19;20259;-65
2022/12/22 13:53:50;;;;;;;12.93;5.20;;;9.90;90.10;;;;;;9167864;19;20022;-65
2022/12/22 13:57:18;;;;;;;13.05;4.75;;;9.90;90.10;;;;;;9166888;19;20018;-64
2022/12/22 14:00:25;;;;;;;13.27;4.88;;;9.90;90.10;;;;;;9163786;19;20024;-63
2022/12/22 14:03:31;;;;;;;8.65;4.00;;;9.90;90.00;;;;;;9162279;19;20020;-64
2022/12/22 14:06:55;;;;;;;16.02;4.72;;;9.90;90.00;;;;;;9165814;19;21022;-65
2022/12/22 14:09:59;;;;;;;16.67;4.95;;;9.90;90.00;;;;;;9164591;19;20414;-65
2022/12/22 14:13:08;;;;;;;12.60;5.05;;;9.90;89.90;;;;;;9166591;19;20019;-63
2022/12/22 14:16:14;;;;;;;16.42;5.82;;;9.80;89.80;;;;;;9165842;19;20090;-63
2022/12/22 14:19:22;;;;;;;12.02;5.55;;;9.80;89.80;;;;;;9164692;19;20387;-63
2022/12/22 14:22:29;;;;;;;20.00;7.05;;;9.80;89.70;;;;;;9162917;19;20541;-65
2022/12/22 14:25:35;;;;;;;19.08;7.25;;;9.80;89.80;;;;;;9164381;19;20018;-65
2022/12/22 14:28:46;;;;;;;19.08;7.55;;;9.80;89.80;;;;;;9163789;19;20546;-62
2022/12/22 14:31:55;;;;;;;20.58;8.23;;;9.70;89.80;;;;;;9163758;19;20050;-64
2022/12/22 14:35:01;;;;;;;19.65;7.50;;;9.70;89.70;;;;;;9162486;19;20513;-65
2022/12/22 14:38:23;;;;;;;24.58;9.25;;;9.70;89.80;;;;;;9165918;19;20022;-64
2022/12/22 14:41:45;;;;;;;28.13;8.90;;;9.70;89.80;;;;;;9163658;19;20825;-63
2022/12/22 14:44:50;;;;;;;31.13;9.80;;;9.70;89.90;;;;;;9160836;19;20019;-65
2022/12/22 14:47:55;;;;;;;24.42;10.63;;;9.70;89.90;;;;;;9162743;19;20046;-62
2022/12/22 14:51:02;;;;;;;28.35;10.93;;;9.70;89.90;;;;;;9164582;19;20021;-64
2022/12/22 14:54:07;;;;;;;24.65;10.63;;;9.60;89.80;;;;;;9165305;19;20018;-66
2022/12/22 14:57:12;;;;;;;22.13;9.93;;;9.60;89.90;;;;;;9163718;19;20023;-64
2022/12/22 15:00:34;;;;;;;23.33;10.73;;;9.70;89.90;;;;;;9158281;19;20019;-65
2022/12/22 15:03:40;;;;;;;26.42;11.10;;;9.70;89.90;;;;;;9159577;19;20107;-64
2022/12/22 15:06:48;;;;;;;21.30;12.20;;;9.60;89.80;;;;;;9162023;19;20022;-66
2022/12/22 15:09:52;;;;;;;27.55;12.68;;;9.60;89.80;;;;;;9162485;19;20019;-64
2022/12/22 15:13:24;;;;;;;25.90;12.50;;;9.60;90.10;;;;;;9162408;19;20018;-63
2022/12/22 15:16:28;;;;;;;28.25;13.63;;;9.60;89.70;;;;;;9158318;19;20030;-63
2022/12/22 15:19:33;;;;;;;;;;;9.60;89.70;;;;;;9167894;19;20018;-65
2022/12/22 15:22:38;;;;;;;;;;;9.50;89.70;;;;;;9169990;19;19942;-65
2022/12/22 15:25:42;;;;;;;29.05;13.50;;;9.50;89.70;;;;;;9152289;19;20736;-67
2022/12/22 15:28:46;;;;;;;30.65;13.68;;;9.50;89.80;;;;;;9138876;19;20021;-64
2022/12/22 15:31:50;;;;;;;30.30;14.55;;;9.40;89.70;;;;;;9176207;19;20027;-64
2022/12/22 15:34:54;;;;;;;28.75;14.52;;;9.40;89.70;;;;;;9174192;19;20629;-64
2022/12/22 15:37:59;;;;;;;31.13;14.90;;;9.40;89.80;;;;;;9173526;19;20161;-63
2022/12/22 15:41:03;;;;;;;28.55;13.60;;;9.30;89.80;;;;;;9172675;19;20085;-64
2022/12/22 15:44:07;;;;;;;27.05;12.88;;;9.30;89.80;;;;;;9177839;19;20049;-63
2022/12/22 15:47:12;;;;;;;30.00;13.68;;;9.30;90.00;;;;;;9182908;19;20042;-64
2022/12/22 15:50:18;;;;;;;24.95;12.23;;;9.30;89.90;;;;;;9182484;19;20018;-63
2022/12/22 15:53:24;;;;;;;31.65;13.75;;;9.20;89.90;;;;;;9180706;19;20370;-63
2022/12/22 15:56:32;;;;;;;25.77;12.90;;;9.20;89.90;;;;;;9182244;19;20025;-63
2022/12/22 15:59:36;;;;;;;28.63;14.02;;;9.20;90.00;;;;;;9181901;19;20368;-64
2022/12/22 16:02:40;;;;;;;29.40;14.43;;;9.20;90.00;;;;;;9176785;19;20369;-64
2022/12/22 16:05:46;;;;;;;30.33;13.95;;;9.20;90.00;;;;;;9176981;19;20006;-64
2022/12/22 16:08:54;;;;;;;30.70;14.85;;;9.20;90.00;;;;;;9181715;19;20042;-63
2022/12/22 16:11:58;;;;;;;34.00;15.38;;;9.20;90.00;;;;;;9181058;19;20503;-64
2022/12/22 16:15:02;;;;;;;;;;;9.20;90.00;;;;;;9181366;19;20021;-65
2022/12/22 16:18:06;;;;;;;30.27;14.93;;;9.20;90.00;;;;;;9180064;19;19919;-66
2022/12/22 16:21:16;;;;;;;34.20;15.90;;;9.20;90.00;;;;;;9180409;19;20370;-64
2022/12/22 16:24:27;;;;;;;31.95;15.80;;;9.20;90.00;;;;;;9179235;19;20014;-65
2022/12/22 16:27:31;;;;;;;33.13;14.45;;;9.20;90.00;;;;;;9181696;19;20025;-64
2022/12/22 16:30:35;;;;;;;30.55;15.05;;;9.20;90.00;;;;;;9176607;19;20024;-67
2022/12/22 16:33:39;;;;;;;36.67;17.38;;;9.20;90.00;;;;;;9179955;19;20018;-65
2022/12/22 16:36:43;;;;;;;32.80;16.50;;;9.20;90.00;;;;;;9179695;19;20612;-64
2022/12/22 16:39:49;;;;;;;31.90;16.10;;;9.20;90.00;;;;;;9177111;19;20014;-63
2022/12/22 16:43:00;;;;;;;28.60;16.20;;;9.20;90.00;;;;;;9171179;19;20025;-64
2022/12/22 16:46:21;;;;;;;29.38;17.02;;;9.20;90.00;;;;;;9161391;19;20553;-66
2022/12/22 16:49:25;;;;;;;30.58;15.27;;;9.20;90.00;;;;;;9165880;19;20078;-64
2022/12/22 16:52:37;;;;;;;33.72;17.00;;;9.20;90.00;;;;;;9165101;19;20046;-67
2022/12/22 16:55:44;;;;;;;38.47;17.75;;;9.20;90.00;;;;;;9165120;19;20372;-65
2022/12/22 16:58:48;;;;;;;31.95;16.90;;;9.20;90.00;;;;;;9179570;19;20373;-66
2022/12/22 17:01:53;;;;;;;;;;;9.20;90.00;;;;;;9176512;19;20471;-64
2022/12/22 17:05:00;;;;;;;31.83;16.95;;;9.20;90.00;;;;;;9177030;19;20293;-65
2022/12/22 17:08:06;;;;;;;38.20;18.55;;;9.20;90.00;;;;;;9178905;19;20069;-64
2022/12/22 17:11:19;;;;;;;34.85;18.60;;;9.20;90.00;;;;;;9179696;19;20074;-63
2022/12/22 17:14:29;;;;;;;32.58;16.95;;;9.20;90.00;;;;;;9167269;19;20022;-63
2022/12/22 17:17:33;;;;;;;34.15;19.20;;;9.20;90.00;;;;;;9178585;19;20070;-64
2022/12/22 17:20:46;;;;;;;38.15;20.17;;;9.20;90.00;;;;;;9179648;19;20019;-62
2022/12/22 17:23:52;;;;;;;37.70;19.92;;;9.20;90.00;;;;;;9174639;19;20467;-63
2022/12/22 17:26:59;;;;;;;36.40;19.40;;;9.20;90.00;;;;;;9175909;19;20045;-64
2022/12/22 17:30:05;;;;;;;37.70;18.92;;;9.20;90.00;;;;;;9178061;19;20370;-66
2022/12/22 17:33:15;;;;;;;45.90;20.35;;;9.20;90.00;;;;;;9176931;19;20022;-65
2022/12/22 17:36:31;;;;;;;38.40;19.02;;;9.20;90.00;;;;;;9176718;19;20021;-62
2022/12/22 17:39:37;;;;;;;33.85;19.33;;;9.20;90.00;;;;;;9178734;19;20097;-64
2022/12/22 17:42:43;;;;;;;37.33;19.65;;;9.20;90.00;;;;;;9176468;19;20018;-68
2022/12/22 17:45:48;;;;;;;33.20;18.50;;;9.20;90.00;;;;;;9178121;19;20471;-63
2022/12/22 17:48:52;;;;;;;37.17;19.13;;;9.20;90.00;;;;;;9174338;19;20051;-63
2022/12/22 17:51:55;;;;;;;39.97;19.15;;;9.20;90.10;;;;;;9178985;19;20456;-65
2022/12/22 17:54:59;;;;;;;34.45;18.98;;;9.20;90.10;;;;;;9175816;19;20014;-64
2022/12/22 17:58:05;;;;;;;40.53;18.75;;;9.20;90.00;;;;;;9174299;19;20026;-62
2022/12/22 18:01:29;;;;;;;36.38;18.80;;;9.20;90.00;;;;;;9175313;19;20033;-65
2022/12/22 18:04:33;;;;;;;32.70;17.88;;;9.20;90.00;;;;;;9172705;19;20420;-63
2022/12/22 18:07:37;;;;;;;37.72;18.02;;;9.20;90.10;;;;;;9177132;19;20018;-64
2022/12/22 18:10:48;;;;;;;35.78;18.70;;;9.20;90.00;;;;;;9177623;19;20022;-63
2022/12/22 18:13:56;;;;;;;39.05;18.60;;;9.20;90.10;;;;;;9170479;19;20022;-63
2022/12/22 18:16:59;;;;;;;35.58;18.50;;;9.20;90.00;;;;;;9177097;19;20781;-64
2022/12/22 18:20:03;;;;;;;;;;;9.20;90.10;;;;;;9176854;19;20341;-63
2022/12/22 18:23:14;;;;;;;38.10;18.27;;;9.20;90.10;;;;;;9171697;19;19911;-63
2022/12/22 18:26:23;;;;;;;33.50;17.93;;;9.20;90.10;;;;;;9177168;19;20018;-67
2022/12/22 18:29:29;;;;;;;33.50;17.30;;;9.20;90.10;;;;;;9176985;19;20468;-65
2022/12/22 18:32:32;;;;;;;30.42;17.15;;;9.20;90.10;;;;;;9177102;19;20466;-63
2022/12/22 18:35:37;;;;;;;32.25;17.92;;;9.20;90.10;;;;;;9176664;19;20642;-64
2022/12/22 18:38:41;;;;;;;37.17;16.13;;;9.20;90.20;;;;;;9175246;19;20475;-66
2022/12/22 18:41:44;;;;;;;33.13;17.30;;;9.20;90.20;;;;;;9176518;19;20018;-65
2022/12/22 18:44:51;;;;;;;43.38;18.65;;;9.20;90.20;;;;;;9172920;19;20023;-63
2022/12/22 18:47:55;;;;;;;35.28;19.00;;;9.20;90.20;;;;;;9175681;19;20022;-63
2022/12/22 18:50:59;;;;;;;38.08;18.70;;;9.20;90.20;;;;;;9176564;19;20011;-63
2022/12/22 18:54:03;;;;;;;37.15;18.55;;;9.20;90.20;;;;;;9179553;19;20026;-64
2022/12/22 18:57:12;;;;;;;;;;;9.20;90.20;;;;;;9182520;19;20027;-63
2022/12/22 19:00:20;;;;;;;37.95;18.75;;;9.20;90.30;;;;;;9181929;19;19946;-63
2022/12/22 19:03:27;;;;;;;35.15;18.67;;;9.20;90.20;;;;;;9182371;19;20028;-63
2022/12/22 19:06:31;;;;;;;39.28;19.33;;;9.20;90.20;;;;;;9183516;19;20034;-64
2022/12/22 19:09:35;;;;;;;33.53;18.25;;;9.30;90.30;;;;;;9183946;19;20018;-65
2022/12/22 19:12:39;;;;;;;;;;;9.30;90.30;;;;;;9184854;19;20014;-62
2022/12/22 19:15:45;;;;;;;35.70;18.23;;;9.30;90.30;;;;;;9177423;19;19930;-64
2022/12/22 19:18:48;;;;;;;31.63;17.35;;;9.30;90.20;;;;;;9181214;19;20052;-65
2022/12/22 19:21:53;;;;;;;41.03;17.63;;;9.30;90.30;;;;;;9181329;19;20022;-64
2022/12/22 19:24:57;;;;;;;36.15;17.85;;;9.30;90.30;;;;;;9178697;19;20037;-62
2022/12/22 19:28:07;;;;;;;33.35;17.27;;;9.30;90.30;;;;;;9183335;19;20026;-62
2022/12/22 19:31:19;;;;;;;33.53;17.65;;;9.30;90.30;;;;;;9181459;19;20026;-63
2022/12/22 19:34:23;;;;;;;38.97;18.95;;;9.30;90.30;;;;;;9181801;19;20458;-64
2022/12/22 19:37:29;;;;;;;40.22;19.75;;;9.30;90.30;;;;;;9176810;19;20026;-64
2022/12/22 19:40:34;;;;;;;35.25;19.42;;;9.30;90.30;;;;;;9176365;19;20014;-62
2022/12/22 19:43:38;;;;;;;36.53;20.63;;;9.40;90.30;;;;;;9174518;19;20014;-62
2022/12/22 19:46:47;;;;;;;37.25;19.13;;;9.40;90.30;;;;;;9174334;19;20046;-64